Air Navigation Services of Czech Republic
Airport: LKLN Updated:  20.09.2021 16:22:27  UTC
 METAR LKLN 20.09. 16:30 ...
METAR LKLN 201630Z AUTO 04003KT 330V100 9999 FEW047 OVC054 12/04 Q1021=